Map

Track Data

SID SEASON NUMBER BASIN SUBBASIN NAME ISO_TIME NATURE LAT LON WMO_WIND WMO_PRES WMO_AGENCY TRACK_TYPE DIST2LAND LANDFALL IFLAG USA_AGENCY USA_ATCF_ID USA_LAT USA_LON USA_RECORD USA_STATUS USA_WIND USA_PRES USA_SSHS USA_R34_NE USA_R34_SE USA_R34_SW USA_R34_NW USA_R50_NE USA_R50_SE USA_R50_SW USA_R50_NW USA_R64_NE USA_R64_SE USA_R64_SW USA_R64_NW USA_POCI USA_ROCI USA_RMW USA_EYE TOKYO_LAT TOKYO_LON TOKYO_GRADE TOKYO_WIND TOKYO_PRES TOKYO_R50_DIR TOKYO_R50_LONG TOKYO_R50_SHORT TOKYO_R30_DIR TOKYO_R30_LONG TOKYO_R30_SHORT TOKYO_LAND CMA_LAT CMA_LON CMA_CAT CMA_WIND CMA_PRES HKO_LAT HKO_LON HKO_CAT HKO_WIND HKO_PRES NEWDELHI_LAT NEWDELHI_LON NEWDELHI_GRADE NEWDELHI_WIND NEWDELHI_PRES NEWDELHI_CI NEWDELHI_DP NEWDELHI_POCI REUNION_LAT REUNION_LON REUNION_TYPE REUNION_WIND REUNION_PRES REUNION_TNUM REUNION_CI REUNION_RMW REUNION_R34_NE REUNION_R34_SE REUNION_R34_SW REUNION_R34_NW REUNION_R50_NE REUNION_R50_SE REUNION_R50_SW REUNION_R50_NW REUNION_R64_NE REUNION_R64_SE REUNION_R64_SW REUNION_R64_NW BOM_LAT BOM_LON BOM_TYPE BOM_WIND BOM_PRES BOM_TNUM BOM_CI BOM_RMW BOM_R34_NE BOM_R34_SE BOM_R34_SW BOM_R34_NW BOM_R50_NE BOM_R50_SE BOM_R50_SW BOM_R50_NW BOM_R64_NE BOM_R64_SE BOM_R64_SW BOM_R64_NW BOM_ROCI BOM_POCI BOM_EYE BOM_POS_METHOD BOM_PRES_METHOD NADI_LAT NADI_LON NADI_CAT NADI_WIND NADI_PRES WELLINGTON_LAT WELLINGTON_LON WELLINGTON_WIND WELLINGTON_PRES DS824_LAT DS824_LON DS824_STAGE DS824_WIND DS824_PRES TD9636_LAT TD9636_LON TD9636_STAGE TD9636_WIND TD9636_PRES TD9635_LAT TD9635_LON TD9635_WIND TD9635_PRES TD9635_ROCI NEUMANN_LAT NEUMANN_LON NEUMANN_CLASS NEUMANN_WIND NEUMANN_PRES MLC_LAT MLC_LON MLC_CLASS MLC_WIND MLC_PRES USA_GUST BOM_GUST BOM_GUST_PER REUNION_GUST REUNION_GUST_PER USA_SEAHGT USA_SEARAD_NE USA_SEARAD_SE USA_SEARAD_SW USA_SEARAD_NW STORM_SPEED STORM_DIR
1894318N15139 1894 53 WP MM NOT_NAMED 1894-11-13 16:00:00 NR 14.5000 139.000 main 1483 1423 __________O___ -1 14.5000 139.000 7 19 286
1894318N15139 1894 53 WP MM NOT_NAMED 1894-11-13 18:00:00 NR 14.6791 138.360 main 1423 1321 __________P___ -1 14.6791 138.360 7 19 286
1894318N15139 1894 53 WP MM NOT_NAMED 1894-11-13 21:00:00 NR 14.9350 137.426 main 1321 1245 __________P___ -1 14.9350 137.426 7 18 286
1894318N15139 1894 53 WP MM NOT_NAMED 1894-11-14 00:00:00 NR 15.1630 136.562 main 1245 1165 __________P___ -1 15.1630 136.562 7 16 285
1894318N15139 1894 53 WP MM NOT_NAMED 1894-11-14 03:00:00 NR 15.3494 135.815 main 1165 1148 __________P___ -1 15.3494 135.815 7 14 284
1894318N15139 1894 53 WP MM NOT_NAMED 1894-11-14 04:00:00 NR 15.4000 135.600 main 1148 1110 __________O___ -1 15.4000 135.600 7 12 283
1894318N15139 1894 53 WP MM NOT_NAMED 1894-11-14 06:00:00 NR 15.4827 135.224 main 1110 1073 __________P___ -1 15.4827 135.224 7 10 282
1894318N15139 1894 53 WP MM NOT_NAMED 1894-11-14 09:00:00 NR 15.5703 134.768 main 1073 1033 __________P___ -1 15.5703 134.768 7 8 280
1894318N15139 1894 53 WP MM NOT_NAMED 1894-11-14 12:00:00 NR 15.6306 134.389 main 1033 997 __________P___ -1 15.6306 134.389 7 7 279
1894318N15139 1894 53 WP MM NOT_NAMED 1894-11-14 15:00:00 NR 15.6818 134.027 main 997 987 __________P___ -1 15.6818 134.027 7 7 278
1894318N15139 1894 53 WP MM NOT_NAMED 1894-11-14 16:00:00 NR 15.7000 133.900 main 987 958 __________O___ -1 15.7000 133.900 7 8 279
1894318N15139 1894 53 WP MM NOT_NAMED 1894-11-14 18:00:00 NR 15.7498 133.597 main 958 913 __________P___ -1 15.7498 133.597 7 9 280
1894318N15139 1894 53 WP MM NOT_NAMED 1894-11-14 21:00:00 NR 15.8247 133.131 main 913 880 __________P___ -1 15.8247 133.131 7 9 279
1894318N15139 1894 53 WP MM NOT_NAMED 1894-11-15 00:00:00 NR 15.8997 132.652 main 880 838 __________P___ -1 15.8997 132.652 7 9 279
1894318N15139 1894 53 WP MM NOT_NAMED 1894-11-15 03:00:00 NR 15.9749 132.164 main 838 820 __________P___ -1 15.9749 132.164 7 10 279
1894318N15139 1894 53 WP MM NOT_NAMED 1894-11-15 04:00:00 NR 16.0000 132.000 main 820 792 __________O___ -1 16.0000 132.000 7 10 280
1894318N15139 1894 53 WP MM NOT_NAMED 1894-11-15 06:00:00 NR 16.0550 131.672 main 798 754 __________P___ -1 16.0550 131.672 7 10 280
1894318N15139 1894 53 WP MM NOT_NAMED 1894-11-15 09:00:00 NR 16.1379 131.175 main 754 717 __________P___ -1 16.1379 131.175 7 10 279
1894318N15139 1894 53 WP MM NOT_NAMED 1894-11-15 12:00:00 NR 16.2155 130.672 main 717 678 __________P___ -1 16.2155 130.672 7 10 278
1894318N15139 1894 53 WP MM NOT_NAMED 1894-11-15 15:00:00 NR 16.2816 130.168 main 678 658 __________P___ -1 16.2816 130.168 7 10 277
1894318N15139 1894 53 WP MM NOT_NAMED 1894-11-15 16:00:00 NR 16.3000 130.000 main 658 629 __________O___ -1 16.3000 130.000 7 10 276
1894318N15139 1894 53 WP MM NOT_NAMED 1894-11-15 18:00:00 NR 16.3277 129.674 main 629 586 __________P___ -1 16.3277 129.674 7 9 274
1894318N15139 1894 53 WP MM NOT_NAMED 1894-11-15 21:00:00 NR 16.3568 129.186 main 586 539 __________P___ -1 16.3568 129.186 7 9 273
1894318N15139 1894 53 WP MM NOT_NAMED 1894-11-16 00:00:00 NR 16.3768 128.690 main 539 494 __________P___ -1 16.3768 128.690 7 10 272
1894318N15139 1894 53 WP MM NOT_NAMED 1894-11-16 03:00:00 NR 16.3939 128.177 main 494 477 __________P___ -1 16.3939 128.177 7 10 272
1894318N15139 1894 53 WP MM NOT_NAMED 1894-11-16 04:00:00 NR 16.4000 128.000 main 477 443 __________O___ -1 16.4000 128.000 7 10 272
1894318N15139 1894 53 WP MM NOT_NAMED 1894-11-16 06:00:00 NR 16.4138 127.636 main 443 402 __________P___ -1 16.4138 127.636 7 11 272
1894318N15139 1894 53 WP MM NOT_NAMED 1894-11-16 09:00:00 NR 16.4347 127.072 main 402 366 __________P___ -1 16.4347 127.072 7 11 272
1894318N15139 1894 53 WP MM NOT_NAMED 1894-11-16 12:00:00 NR 16.4584 126.491 main 366 328 __________P___ -1 16.4584 126.491 7 11 273
1894318N15139 1894 53 WP MM NOT_NAMED 1894-11-16 15:00:00 NR 16.4882 125.899 main 328 317 __________P___ -1 16.4882 125.899 7 11 273
1894318N15139 1894 53 WP MM NOT_NAMED 1894-11-16 16:00:00 NR 16.5000 125.700 main 317 299 __________O___ -1 16.5000 125.700 7 12 273
1894318N15139 1894 53 WP MM NOT_NAMED 1894-11-16 18:00:00 NR 16.5145 125.292 main 299 238 __________P___ -1 16.5145 125.292 7 12 272
1894318N15139 1894 53 WP MM NOT_NAMED 1894-11-16 21:00:00 NR 16.5423 124.674 main 238 173 __________P___ -1 16.5423 124.674 7 12 274
1894318N15139 1894 53 WP MM NOT_NAMED 1894-11-17 00:00:00 NR 16.5884 124.065 main 173 108 __________P___ -1 16.5884 124.065 7 11 276
1894318N15139 1894 53 WP MM NOT_NAMED 1894-11-17 03:00:00 NR 16.6653 123.484 main 108 88 __________P___ -1 16.6653 123.484 7 11 279
1894318N15139 1894 53 WP MM NOT_NAMED 1894-11-17 04:00:00 NR 16.7000 123.300 main 88 44 __________O___ -1 16.7000 123.300 3 11 283
1894318N15139 1894 53 WP MM NOT_NAMED 1894-11-17 06:00:00 NR 16.7824 122.950 main 44 0 __________P___ -1 16.7824 122.950 3 10 286
1894318N15139 1894 53 WP MM NOT_NAMED 1894-11-17 09:00:00 NR 16.9378 122.455 main 0 0 __________P___ -1 16.9378 122.455 3 10 290
1894318N15139 1894 53 WP MM NOT_NAMED 1894-11-17 12:00:00 NR 17.1230 121.990 main 0 0 __________P___ -1 17.1230 121.990 3 10 294
1894318N15139 1894 53 WP MM NOT_NAMED 1894-11-17 15:00:00 NR 17.3286 121.545 main 0 0 __________P___ -1 17.3286 121.545 3 9 296
1894318N15139 1894 53 WP MM NOT_NAMED 1894-11-17 16:00:00 NR 17.4000 121.400 main 0 0 __________O___ -1 17.4000 121.400 4 10 295
1894318N15139 1894 53 WP MM NOT_NAMED 1894-11-17 18:00:00 NR 17.5334 121.076 main 0 0 __________P___ -1 17.5334 121.076 4 10 294
1894318N15139 1894 53 WP MM NOT_NAMED 1894-11-17 21:00:00 NR 17.7460 120.603 main 0 0 __________P___ -1 17.7460 120.603 4 10 297
1894318N15139 1894 53 WP MM NOT_NAMED 1894-11-18 00:00:00 NR 17.9736 120.169 main 31 42 __________P___ -1 17.9736 120.169 4 9 302
1894318N15139 1894 53 WP MM NOT_NAMED 1894-11-18 03:00:00 NR 18.2159 119.802 main 74 74 __________P___ -1 18.2159 119.802 4 8 306
1894318N15139 1894 53 WP MM NOT_NAMED 1894-11-18 04:00:00 NR 18.3000 119.700 main 87 87 __________O___ -1 18.3000 119.700 4 7 316
1894318N15139 1894 53 WP MM NOT_NAMED 1894-11-18 06:00:00 NR 18.4767 119.539 main 114 114 __________P___ -1 18.4767 119.539 4 7 325
1894318N15139 1894 53 WP MM NOT_NAMED 1894-11-18 09:00:00 NR 18.7549 119.368 main 134 134 __________P___ -1 18.7549 119.368 4 6 334
1894318N15139 1894 53 WP MM NOT_NAMED 1894-11-18 12:00:00 NR 19.0377 119.248 main 162 166 __________P___ -1 19.0377 119.248 4 6 339
1894318N15139 1894 53 WP MM NOT_NAMED 1894-11-18 15:00:00 NR 19.3124 119.140 main 187 187 __________P___ -1 19.3124 119.140 4 6 339
1894318N15139 1894 53 WP MM NOT_NAMED 1894-11-18 16:00:00 NR 19.4000 119.100 main 193 193 __________O___ -1 19.4000 119.100 4 6 329
1894318N15139 1894 53 WP MM NOT_NAMED 1894-11-18 18:00:00 NR 19.5720 118.973 main 215 215 __________P___ -1 19.5720 118.973 4 6 324
1894318N15139 1894 53 WP MM NOT_NAMED 1894-11-18 21:00:00 NR 19.8175 118.777 main 245 245 __________P___ -1 19.8175 118.777 4 6 323
1894318N15139 1894 53 WP MM NOT_NAMED 1894-11-19 00:00:00 NR 20.0426 118.592 main 275 283 __________P___ -1 20.0426 118.592 4 5 323
1894318N15139 1894 53 WP MM NOT_NAMED 1894-11-19 03:00:00 NR 20.2409 118.440 main 305 298 __________P___ -1 20.2409 118.440 4 5 325
1894318N15139 1894 53 WP MM NOT_NAMED 1894-11-19 04:00:00 NR 20.3000 118.400 main 298 291 __________O___ -1 20.3000 118.400 4 4 335
1894318N15139 1894 53 WP MM NOT_NAMED 1894-11-19 06:00:00 NR 20.4008 118.351 main 291 293 __________P___ -1 20.4008 118.351 4 3 340
1894318N15139 1894 53 WP MM NOT_NAMED 1894-11-19 09:00:00 NR 20.5268 118.317 main 293 288 __________P___ -1 20.5268 118.317 4 2 352
1894318N15139 1894 53 WP MM NOT_NAMED 1894-11-19 12:00:00 NR 20.6392 118.308 main 288 277 __________P___ -1 20.6392 118.308 4 2 355
1894318N15139 1894 53 WP MM NOT_NAMED 1894-11-19 15:00:00 NR 20.7565 118.304 main 277 277 __________P___ -1 20.7565 118.304 4 2 350
1894318N15139 1894 53 WP MM NOT_NAMED 1894-11-19 16:00:00 NR 20.8000 118.300 main 277 272 __________O___ -1 20.8000 118.300 4 3 0
1894318N15139 1894 53 WP MM NOT_NAMED 1894-11-19 18:00:00 NR 20.8963 118.284 main 272 266 __________P___ -1 20.8963 118.284 4 3 347
1894318N15139 1894 53 WP MM NOT_NAMED 1894-11-19 21:00:00 NR 21.0610 118.243 main 266 258 __________P___ -1 21.0610 118.243 4 4 345
1894318N15139 1894 53 WP MM NOT_NAMED 1894-11-20 00:00:00 NR 21.2430 118.187 main 258 235 __________P___ -1 21.2430 118.187 4 4 344
1894318N15139 1894 53 WP MM NOT_NAMED 1894-11-20 03:00:00 NR 21.4351 118.122 main 235 227 __________P___ -1 21.4351 118.122 4 4 343
1894318N15139 1894 53 WP MM NOT_NAMED 1894-11-20 04:00:00 NR 21.5000 118.100 main 227 __________O___ -1 21.5000 118.100 4 4 341

Digital Typhoon Data and Search

About IBTrACS Database

This database is a web-friendly format of International Best Track Archive for Climate Stewardship (IBTrACS), a global best track data archive curated by NOAA dating back to 1842.

Updated: 2021-10-27